createdAt,value
2022-08-28T00:02:09.225Z,100893.47
2022-08-28T00:04:37.264Z,100900.50
2022-08-28T00:07:05.923Z,100897.56
2022-08-28T00:09:33.779Z,100901.06
2022-08-28T00:12:01.733Z,100902.94
2022-08-28T00:14:29.896Z,100906.63
2022-08-28T00:16:57.687Z,100908.69
2022-08-28T00:19:27.292Z,100904.50
2022-08-28T00:21:55.235Z,100904.50
2022-08-28T00:24:23.008Z,100906.38
2022-08-28T00:27:08.167Z,100908.41
2022-08-28T00:29:36.107Z,100898.81
2022-08-28T00:32:04.759Z,100913.16
2022-08-28T00:34:33.926Z,100917.88
2022-08-28T00:37:02.007Z,100924.91
2022-08-28T00:39:29.868Z,100914.16
2022-08-28T00:41:58.849Z,100913.16
2022-08-28T00:44:28.926Z,100919.38
2022-08-28T00:46:59.148Z,100922.06
2022-08-28T00:49:30.661Z,100915.84
2022-08-28T00:52:08.094Z,100923.25
2022-08-28T00:54:39.347Z,100919.28
2022-08-28T00:57:09.846Z,100926.31
2022-08-28T00:59:39.396Z,100923.44
2022-08-28T01:02:08.381Z,100924.66
2022-08-28T01:04:37.280Z,100926.69
2022-08-28T01:07:09.726Z,100923.72
2022-08-28T01:09:41.471Z,100924.13
2022-08-28T01:12:13.491Z,100930.41
2022-08-28T01:14:45.723Z,100936.16
2022-08-28T01:17:15.872Z,100933.28
2022-08-28T01:19:55.449Z,100940.50
2022-08-28T01:22:31.074Z,100919.91
2022-08-28T01:25:03.283Z,100935.50
2022-08-28T01:27:31.260Z,100938.84
2022-08-28T01:29:59.160Z,100939.84
2022-08-28T01:32:34.204Z,100937.94
2022-08-28T01:35:02.451Z,100934.88
2022-08-28T01:37:31.908Z,100933.03
2022-08-28T01:40:02.205Z,100944.78
2022-08-28T01:42:30.125Z,100932.31
2022-08-28T01:44:58.141Z,100943.50
2022-08-28T01:47:25.897Z,100937.31
2022-08-28T01:49:53.651Z,100947.66
2022-08-28T01:52:24.101Z,100947.66
2022-08-28T01:54:54.405Z,100935.25
2022-08-28T01:57:25.555Z,100934.63
2022-08-28T01:59:54.434Z,100934.44
2022-08-28T02:02:22.707Z,100932.31
2022-08-28T02:04:50.640Z,100928.13
2022-08-28T02:07:18.756Z,100938.69
2022-08-28T02:09:46.769Z,100926.41
2022-08-28T02:12:14.602Z,100939.72
2022-08-28T02:14:43.783Z,100942.84
2022-08-28T02:17:12.103Z,100940.72
2022-08-28T02:19:39.904Z,100942.59
2022-08-28T02:22:09.308Z,100947.53
2022-08-28T02:24:37.374Z,100948.28
2022-08-28T02:27:05.888Z,100962.72
2022-08-28T02:29:34.106Z,100960.41
2022-08-28T02:32:05.840Z,100961.41
2022-08-28T02:34:34.049Z,100962.00
2022-08-28T02:37:01.970Z,100966.78
2022-08-28T02:39:30.070Z,100965.97
2022-08-28T02:41:57.935Z,100966.53
2022-08-28T02:44:25.872Z,100967.81
2022-08-28T02:46:53.759Z,100968.47
2022-08-28T02:49:24.020Z,100968.81
2022-08-28T02:51:51.931Z,100967.19
2022-08-28T02:54:21.157Z,100961.34
2022-08-28T02:56:49.027Z,100966.25
2022-08-28T02:59:16.831Z,100961.72
2022-08-28T03:01:44.780Z,100959.22
2022-08-28T03:04:12.663Z,100963.56
2022-08-28T03:06:42.064Z,100967.19
2022-08-28T03:09:10.425Z,100921.28
2022-08-28T03:11:38.319Z,100966.72
2022-08-28T03:14:06.139Z,100964.69
2022-08-28T03:16:34.714Z,100967.19
2022-08-28T03:19:03.376Z,100966.34
2022-08-28T03:21:31.211Z,100959.59
2022-08-28T03:24:00.433Z,100964.31
2022-08-28T03:26:28.748Z,100968.47
2022-08-28T03:28:57.602Z,100962.41
2022-08-28T03:31:29.923Z,100965.72
2022-08-28T03:33:58.283Z,100976.72
2022-08-28T03:36:28.763Z,100950.47
2022-08-28T03:39:00.097Z,100980.81
2022-08-28T03:41:30.953Z,100976.19
2022-08-28T03:44:00.424Z,100990.25
2022-08-28T03:46:32.709Z,100987.56
2022-08-28T03:49:01.040Z,100986.19
2022-08-28T03:51:31.461Z,100982.69
2022-08-28T03:54:00.826Z,100993.59
2022-08-28T03:56:31.275Z,100993.75
2022-08-28T03:59:01.682Z,100990.59
2022-08-28T04:01:30.235Z,100992.25
2022-08-28T04:03:58.353Z,101003.91
2022-08-28T04:06:27.051Z,101002.97
2022-08-28T04:08:55.342Z,100996.97
2022-08-28T04:11:27.987Z,100999.28
2022-08-28T04:13:57.815Z,101000.56
2022-08-28T04:16:25.604Z,100998.44
2022-08-28T04:18:53.327Z,101000.94
2022-08-28T04:21:23.503Z,101001.47
2022-08-28T04:23:52.076Z,100993.44
2022-08-28T04:26:21.910Z,100980.34
2022-08-28T04:28:50.970Z,101008.38
2022-08-28T04:31:31.772Z,101012.13
2022-08-28T04:34:01.184Z,101006.47
2022-08-28T04:36:29.821Z,101006.81
2022-08-28T04:38:58.547Z,101015.03
2022-08-28T04:41:26.687Z,101017.34
2022-08-28T04:43:56.811Z,101024.09
2022-08-28T04:46:26.499Z,101031.13
2022-08-28T04:48:59.517Z,101034.16
2022-08-28T04:51:27.638Z,101033.81
2022-08-28T04:53:55.427Z,101033.31
2022-08-28T04:56:23.469Z,101014.34
2022-08-28T04:58:51.450Z,101044.22
2022-08-28T05:01:21.408Z,101037.22
2022-08-28T05:03:54.605Z,101034.25
2022-08-28T05:06:22.863Z,101049.22
2022-08-28T05:08:50.829Z,101040.91
2022-08-28T05:11:32.782Z,101050.25
2022-08-28T05:14:04.346Z,101045.91
2022-08-28T05:16:32.834Z,101038.41
2022-08-28T05:19:02.500Z,101047.94
2022-08-28T05:21:30.329Z,101047.47
2022-08-28T05:23:59.249Z,101051.88
2022-08-28T05:26:28.415Z,101047.69
2022-08-28T05:28:59.519Z,101062.75
2022-08-28T05:31:29.736Z,101063.78
2022-08-28T05:34:00.876Z,101078.38
2022-08-28T05:36:33.347Z,101070.88
2022-08-28T05:39:07.607Z,101070.22
2022-08-28T05:41:35.923Z,101071.41
2022-08-28T05:44:06.379Z,101064.38
2022-08-28T05:46:44.834Z,101067.56
2022-08-28T05:49:13.471Z,101070.22
2022-08-28T05:51:43.622Z,101079.75
2022-08-28T05:54:11.774Z,101075.91
2022-08-28T05:56:42.041Z,101059.22
2022-08-28T05:59:11.253Z,101074.91
2022-08-28T06:01:41.532Z,101093.91
2022-08-28T06:04:13.115Z,101089.88
2022-08-28T06:06:43.053Z,101085.69
2022-08-28T06:09:13.930Z,101096.31
2022-08-28T06:11:46.111Z,101086.88
2022-08-28T06:14:16.602Z,101082.53
2022-08-28T06:16:48.141Z,101088.06
2022-08-28T06:19:16.936Z,101090.22
2022-08-28T06:21:48.184Z,101082.25
2022-08-28T06:24:15.971Z,101095.72
2022-08-28T06:26:44.364Z,101097.84
2022-08-28T06:29:15.731Z,101101.91
2022-08-28T06:31:43.714Z,101112.41
2022-08-28T06:34:11.641Z,101108.53
2022-08-28T06:36:42.078Z,101119.44
2022-08-28T06:39:14.708Z,101111.88
2022-08-28T06:41:43.786Z,101118.00
2022-08-28T06:44:13.491Z,101117.16
2022-08-28T06:46:42.007Z,101118.13
2022-08-28T06:49:10.288Z,101121.59
2022-08-28T06:51:38.385Z,101119.19
2022-08-28T06:54:07.350Z,101118.13
2022-08-28T06:56:36.861Z,101126.16
2022-08-28T06:59:05.218Z,101089.75
2022-08-28T07:01:35.319Z,101113.03
2022-08-28T07:04:06.437Z,101109.81
2022-08-28T07:06:36.011Z,101109.81
2022-08-28T07:09:06.201Z,101114.69
2022-08-28T07:11:36.710Z,101117.03
2022-08-28T07:14:06.059Z,101116.31
2022-08-28T07:16:38.116Z,101116.78
2022-08-28T07:19:07.270Z,101125.38
2022-08-28T07:21:38.689Z,101104.63
2022-08-28T07:24:08.436Z,101127.63
2022-08-28T07:26:37.991Z,101137.03
2022-08-28T07:29:10.812Z,101132.69
2022-08-28T07:31:45.667Z,101103.13
2022-08-28T07:34:15.079Z,101139.00
2022-08-28T07:36:44.590Z,101138.66
2022-08-28T07:39:14.128Z,101141.84
2022-08-28T07:41:43.923Z,101138.59
2022-08-28T07:44:32.347Z,101140.44
2022-08-28T07:47:02.309Z,101130.72
2022-08-28T07:49:30.098Z,101149.75
2022-08-28T07:51:58.358Z,101144.38
2022-08-28T07:54:26.166Z,101145.00
2022-08-28T07:56:55.856Z,101140.75
2022-08-28T07:59:23.870Z,101143.53
2022-08-28T08:01:53.042Z,101133.63
2022-08-28T08:04:22.517Z,101134.66
2022-08-28T08:06:57.010Z,101154.75
2022-08-28T08:09:27.324Z,101157.06
2022-08-28T08:11:58.291Z,101155.69
2022-08-28T08:14:28.708Z,101157.72
2022-08-28T08:16:56.511Z,101160.88
2022-08-28T08:19:24.341Z,101161.72
2022-08-28T08:21:55.087Z,101158.28
2022-08-28T08:24:26.074Z,101170.31
2022-08-28T08:26:59.927Z,101165.25
2022-08-28T08:29:32.292Z,101161.53
2022-08-28T08:32:05.249Z,101167.28
2022-08-28T08:34:34.712Z,101168.41
2022-08-28T08:37:02.612Z,101145.25
2022-08-28T08:39:31.665Z,101166.44
2022-08-28T08:42:01.700Z,101170.31
2022-08-28T08:44:34.437Z,101168.47
2022-08-28T08:47:14.598Z,101165.31
2022-08-28T08:49:50.724Z,101157.06
2022-08-28T08:52:36.343Z,101159.59
2022-08-28T08:55:24.596Z,101158.00
2022-08-28T08:58:02.055Z,101163.56
2022-08-28T09:00:34.340Z,101169.19
2022-08-28T09:03:07.560Z,101164.22
2022-08-28T09:05:45.127Z,101158.94
2022-08-28T09:08:23.050Z,101167.28
2022-08-28T09:11:00.044Z,101172.53
2022-08-28T09:13:39.715Z,101175.88
2022-08-28T09:16:17.624Z,101179.22
2022-08-28T09:18:46.036Z,101181.53
2022-08-28T09:21:29.028Z,101171.81
2022-08-28T09:24:05.736Z,101186.09
2022-08-28T09:26:35.628Z,101183.06
2022-08-28T09:29:06.399Z,101183.25
2022-08-28T09:31:38.174Z,101182.03
2022-08-28T09:34:25.481Z,101184.97
2022-08-28T09:36:54.952Z,101188.78
2022-08-28T09:39:24.757Z,101182.66
2022-08-28T09:42:33.086Z,101183.94
2022-08-28T09:45:09.354Z,101181.06
2022-08-28T09:47:49.058Z,101179.03
2022-08-28T09:50:31.225Z,101170.97
2022-08-28T09:53:15.227Z,101172.63
2022-08-28T09:55:51.879Z,101169.63
2022-08-28T09:58:22.170Z,101171.75
2022-08-28T10:00:53.826Z,101170.75
2022-08-28T10:03:28.261Z,101171.44
2022-08-28T10:06:05.226Z,101170.50
2022-08-28T10:08:55.313Z,101176.16
2022-08-28T10:11:30.779Z,101168.84
2022-08-28T10:14:07.966Z,101170.41
2022-08-28T10:16:47.091Z,101163.09
2022-08-28T10:19:29.405Z,101165.69
2022-08-28T10:22:05.192Z,101143.50
2022-08-28T10:24:48.583Z,101166.13
2022-08-28T10:27:31.592Z,101126.38
2022-08-28T10:30:12.506Z,101175.25
2022-08-28T10:33:12.568Z,101150.00
2022-08-28T10:35:52.076Z,101159.13
2022-08-28T10:38:29.750Z,101180.41
2022-08-28T10:41:03.453Z,101182.09
2022-08-28T10:43:34.641Z,101177.19
2022-08-28T10:46:06.581Z,101176.78
2022-08-28T10:48:41.090Z,101182.59
2022-08-28T10:51:15.369Z,101182.59
2022-08-28T10:53:47.037Z,101182.09
2022-08-28T10:56:18.896Z,101184.13
2022-08-28T10:58:50.863Z,101173.13
2022-08-28T11:01:27.130Z,101186.38
2022-08-28T11:03:57.019Z,101176.75
2022-08-28T11:06:33.362Z,101188.00
2022-08-28T11:09:24.687Z,101170.09
2022-08-28T11:12:01.541Z,101194.59
2022-08-28T11:14:33.822Z,101129.75
2022-08-28T11:17:06.579Z,101181.28
2022-08-28T11:20:00.731Z,101186.31
2022-08-28T11:22:35.615Z,101184.50
2022-08-28T11:25:12.152Z,101162.06
2022-08-28T11:27:41.257Z,101180.81
2022-08-28T11:30:33.021Z,101181.56
2022-08-28T11:33:09.590Z,101182.00
2022-08-28T11:35:45.047Z,101189.66
2022-08-28T11:38:52.444Z,101182.19
2022-08-28T11:41:22.732Z,101162.69
2022-08-28T11:43:52.387Z,101180.50
2022-08-28T11:46:31.281Z,101175.75
2022-08-28T11:49:01.077Z,101171.81
2022-08-28T11:51:54.059Z,101174.72
2022-08-28T11:54:41.182Z,101183.88
2022-08-28T11:57:14.772Z,101182.19
2022-08-28T12:00:02.951Z,101178.03
2022-08-28T12:03:12.893Z,101159.34
2022-08-28T12:05:49.892Z,101174.47
2022-08-28T12:09:09.539Z,101165.59
2022-08-28T12:11:58.292Z,101173.88
2022-08-28T12:15:08.514Z,101173.06
2022-08-28T12:18:01.097Z,101173.88
2022-08-28T12:21:00.872Z,101180.97
2022-08-28T12:23:43.245Z,101169.72
2022-08-28T12:26:22.284Z,101170.97
2022-08-28T12:28:55.010Z,101163.91
2022-08-28T12:32:04.706Z,101167.84
2022-08-28T12:34:44.403Z,101165.38
2022-08-28T12:37:47.561Z,101164.50
2022-08-28T12:40:24.048Z,101151.59
2022-08-28T12:42:55.879Z,101158.38
2022-08-28T12:45:32.334Z,101171.03
2022-08-28T12:48:04.207Z,101170.47
2022-08-28T12:50:35.830Z,101164.97
2022-08-28T12:53:06.616Z,101166.75
2022-08-28T12:55:35.332Z,101159.06
2022-08-28T12:58:03.020Z,101170.25
2022-08-28T13:00:35.584Z,101164.44
2022-08-28T13:03:08.163Z,101164.47
2022-08-28T13:05:39.687Z,101164.91
2022-08-28T13:08:10.743Z,101151.69
2022-08-28T13:10:41.818Z,101163.63
2022-08-28T13:13:19.437Z,101142.78
2022-08-28T13:15:53.414Z,101155.31
2022-08-28T13:18:47.346Z,101156.97
2022-08-28T13:21:34.316Z,101147.41
2022-08-28T13:24:40.327Z,101145.50
2022-08-28T13:27:18.906Z,101137.84
2022-08-28T13:29:59.689Z,101152.38
2022-08-28T13:32:31.421Z,101141.03
2022-08-28T13:35:16.613Z,101143.25
2022-08-28T13:37:48.008Z,101147.31
2022-08-28T13:40:45.916Z,101139.03
2022-08-28T13:43:11.299Z,101140.47
2022-08-28T13:45:43.657Z,101149.56
2022-08-28T13:48:14.061Z,101133.69
2022-08-28T13:50:46.493Z,101136.72
2022-08-28T13:53:15.390Z,101138.16
2022-08-28T13:55:43.357Z,101122.59
2022-08-28T13:58:11.448Z,101119.03
2022-08-28T14:00:44.461Z,101111.56
2022-08-28T14:03:31.542Z,101122.59
2022-08-28T14:05:59.379Z,101114.06
2022-08-28T14:08:27.267Z,101119.59
2022-08-28T14:10:55.342Z,101112.94
2022-08-28T14:13:27.418Z,101109.22
2022-08-28T14:15:55.811Z,101101.94
2022-08-28T14:18:25.759Z,101111.72
2022-08-28T14:20:53.845Z,101102.47
2022-08-28T14:23:22.986Z,101101.75
2022-08-28T14:25:50.963Z,101094.13
2022-08-28T14:28:19.173Z,101094.81
2022-08-28T14:30:48.896Z,101093.59
2022-08-28T14:33:20.692Z,101100.09
2022-08-28T14:35:50.158Z,101092.69
2022-08-28T14:38:18.894Z,101089.97
2022-08-28T14:40:46.948Z,101092.69
2022-08-28T14:43:15.916Z,101094.34
2022-08-28T14:45:45.800Z,101092.66
2022-08-28T14:48:14.503Z,101098.94
2022-08-28T14:50:44.021Z,101096.97
2022-08-28T14:53:13.888Z,101096.97
2022-08-28T14:55:44.244Z,101094.09
2022-08-28T14:58:12.986Z,101091.59
2022-08-28T15:00:42.135Z,101092.06
2022-08-28T15:03:10.717Z,101094.16
2022-08-28T15:05:38.715Z,101094.59
2022-08-28T15:08:09.300Z,101095.03
2022-08-28T15:10:40.070Z,101087.97
2022-08-28T15:13:09.921Z,101090.84
2022-08-28T15:15:39.363Z,101087.31
2022-08-28T15:18:07.460Z,101092.94
2022-08-28T15:20:38.996Z,101077.53
2022-08-28T15:23:06.874Z,101090.34
2022-08-28T15:25:34.932Z,101081.91
2022-08-28T15:28:04.899Z,101096.66
2022-08-28T15:30:33.332Z,101085.88
2022-08-28T15:33:01.279Z,101088.78
2022-08-28T15:35:29.306Z,101075.66
2022-08-28T15:37:57.935Z,101075.28
2022-08-28T15:40:43.482Z,101081.28
2022-08-28T15:43:12.914Z,101085.13
2022-08-28T15:45:42.156Z,101082.41
2022-08-28T15:48:11.975Z,101084.94
2022-08-28T15:50:40.035Z,101088.69
2022-08-28T15:53:09.360Z,101085.22
2022-08-28T15:55:38.343Z,101082.31
2022-08-28T15:58:08.852Z,101087.53
2022-08-28T16:00:44.049Z,101089.00
2022-08-28T16:03:12.122Z,101081.28
2022-08-28T16:05:40.648Z,101086.69
2022-08-28T16:08:10.633Z,101079.22
2022-08-28T16:10:39.218Z,101069.56
2022-08-28T16:13:07.265Z,101073.69
2022-08-28T16:15:35.572Z,101079.97
2022-08-28T16:18:08.785Z,101074.63
2022-08-28T16:20:37.254Z,101070.28
2022-08-28T16:23:05.118Z,101076.69
2022-08-28T16:25:32.944Z,101074.47
2022-08-28T16:28:00.773Z,101078.84
2022-08-28T16:30:28.683Z,101072.19
2022-08-28T16:32:56.542Z,101072.25
2022-08-28T16:35:26.583Z,101068.06
2022-08-28T16:37:54.956Z,101071.81
2022-08-28T16:40:23.405Z,101063.31
2022-08-28T16:42:52.242Z,101073.47
2022-08-28T16:45:20.870Z,101069.78
2022-08-28T16:47:49.212Z,101064.44
2022-08-28T16:50:18.266Z,101059.09
2022-08-28T16:52:47.789Z,101070.31
2022-08-28T16:55:16.088Z,101068.50
2022-08-28T16:57:44.090Z,101059.53
2022-08-28T17:00:14.029Z,101066.19
2022-08-28T17:02:42.815Z,101061.19
2022-08-28T17:05:11.484Z,101063.69
2022-08-28T17:07:39.794Z,101063.69
2022-08-28T17:10:12.074Z,101060.81
2022-08-28T17:12:39.984Z,101058.94
2022-08-28T17:15:09.473Z,101053.78
2022-08-28T17:17:39.752Z,101056.28
2022-08-28T17:20:29.140Z,101060.84
2022-08-28T17:22:56.127Z,101073.97
2022-08-28T17:25:26.284Z,101069.59
2022-08-28T17:27:54.101Z,101062.53
2022-08-28T17:30:22.481Z,101065.84
2022-08-28T17:32:51.952Z,101058.81
2022-08-28T17:35:20.268Z,101074.19
2022-08-28T17:37:50.661Z,101078.34
2022-08-28T17:40:19.299Z,101082.06
2022-08-28T17:42:52.787Z,101075.78
2022-08-28T17:45:21.429Z,101085.75
2022-08-28T17:47:49.580Z,101083.72
2022-08-28T17:50:19.156Z,101080.78
2022-08-28T17:52:47.113Z,101085.75
2022-08-28T17:55:16.086Z,101086.41
2022-08-28T17:57:46.534Z,101086.19
2022-08-28T18:00:18.221Z,101079.94
2022-08-28T18:02:47.118Z,101077.44
2022-08-28T18:05:15.747Z,101080.78
2022-08-28T18:07:43.666Z,101090.31
2022-08-28T18:10:12.103Z,101089.69
2022-08-28T18:12:42.486Z,101083.84
2022-08-28T18:15:13.716Z,101092.38
2022-08-28T18:17:50.386Z,101089.44
2022-08-28T18:20:19.620Z,101087.34
2022-08-28T18:22:47.901Z,101085.22
2022-08-28T18:25:30.800Z,101080.22
2022-08-28T18:28:04.831Z,101091.84
2022-08-28T18:30:33.209Z,101103.22
2022-08-28T18:33:03.405Z,101102.63
2022-08-28T18:35:32.331Z,101110.28
2022-08-28T18:38:01.399Z,101114.22
2022-08-28T18:40:30.391Z,101112.09
2022-08-28T18:42:58.758Z,101116.66
2022-08-28T18:45:27.507Z,101119.16
2022-08-28T18:47:55.748Z,101114.78
2022-08-28T18:50:26.271Z,101120.38
2022-08-28T18:52:54.982Z,101118.66
2022-08-28T18:55:25.206Z,101130.69
2022-08-28T18:57:53.092Z,101132.13
2022-08-28T19:00:23.072Z,101133.53
2022-08-28T19:02:51.369Z,101141.81
2022-08-28T19:05:20.063Z,101140.81
2022-08-28T19:07:50.340Z,101138.88
2022-08-28T19:10:32.946Z,101141.56
2022-08-28T19:13:02.243Z,101138.41
2022-08-28T19:15:31.182Z,101154.19
2022-08-28T19:18:00.390Z,101159.31
2022-08-28T19:20:29.385Z,101160.75
2022-08-28T19:22:59.266Z,101157.78
2022-08-28T19:25:32.722Z,101156.31
2022-08-28T19:28:02.128Z,101159.78
2022-08-28T19:30:33.026Z,101151.09
2022-08-28T19:33:02.341Z,101166.41
2022-08-28T19:35:30.479Z,101168.03
2022-08-28T19:37:59.634Z,101158.47
2022-08-28T19:40:31.519Z,101167.56
2022-08-28T19:43:00.617Z,101164.19
2022-08-28T19:45:31.232Z,101171.25
2022-08-28T19:47:59.291Z,101177.00
2022-08-28T19:50:27.412Z,101174.50
2022-08-28T19:52:55.334Z,101179.63
2022-08-28T19:55:27.603Z,101186.63
2022-08-28T19:57:55.943Z,101180.16
2022-08-28T20:00:28.515Z,101181.81
2022-08-28T20:02:57.371Z,101191.75
2022-08-28T20:05:26.232Z,101188.81
2022-08-28T20:07:54.340Z,101189.41
2022-08-28T20:10:22.220Z,101196.81
2022-08-28T20:12:51.374Z,101204.91
2022-08-28T20:15:20.451Z,101212.31
2022-08-28T20:17:49.912Z,101205.28
2022-08-28T20:20:19.748Z,101215.84
2022-08-28T20:22:47.698Z,101212.88
2022-08-28T20:25:18.083Z,101210.38
2022-08-28T20:27:45.901Z,101204.44
2022-08-28T20:30:15.282Z,101213.16
2022-08-28T20:32:43.251Z,101213.53
2022-08-28T20:35:12.938Z,101211.59
2022-08-28T20:37:45.598Z,101202.81
2022-08-28T20:40:14.621Z,101213.03
2022-08-28T20:42:42.569Z,101209.03
2022-08-28T20:45:11.376Z,101214.41
2022-08-28T20:47:40.679Z,101213.56
2022-08-28T20:50:09.135Z,101215.16
2022-08-28T20:52:37.022Z,101216.81
2022-08-28T20:55:05.413Z,101223.41
2022-08-28T20:57:33.246Z,101223.81
2022-08-28T21:00:05.281Z,101229.75
2022-08-28T21:02:33.971Z,101234.19
2022-08-28T21:05:03.441Z,101232.72
2022-08-28T21:07:33.379Z,101236.25
2022-08-28T21:10:05.721Z,101235.59
2022-08-28T21:12:36.204Z,101234.13
2022-08-28T21:15:04.977Z,101239.50
2022-08-28T21:17:32.734Z,101245.41
2022-08-28T21:20:02.940Z,101236.69
2022-08-28T21:22:35.833Z,101240.16
2022-08-28T21:25:05.312Z,101228.81
2022-08-28T21:27:33.113Z,101225.84
2022-08-28T21:30:01.671Z,101238.66
2022-08-28T21:32:30.916Z,101238.19
2022-08-28T21:35:00.605Z,101238.06
2022-08-28T21:37:28.974Z,101231.47
2022-08-28T21:39:59.149Z,101250.03
2022-08-28T21:42:27.389Z,101256.94
2022-08-28T21:44:55.454Z,101260.00
2022-08-28T21:47:24.670Z,101256.13
2022-08-28T21:49:54.143Z,101268.91
2022-08-28T21:52:23.759Z,101262.22
2022-08-28T21:54:56.690Z,101268.81
2022-08-28T21:57:25.869Z,101260.53
2022-08-28T21:59:53.882Z,101264.81
2022-08-28T22:02:22.030Z,101265.69
2022-08-28T22:04:50.036Z,101265.69
2022-08-28T22:07:19.403Z,101261.56
2022-08-28T22:09:47.766Z,101271.47
2022-08-28T22:12:16.371Z,101249.38
2022-08-28T22:14:45.964Z,101264.59
2022-08-28T22:17:15.024Z,101268.31
2022-08-28T22:19:43.019Z,101268.00
2022-08-28T22:22:34.147Z,101278.00
2022-08-28T22:25:01.961Z,101276.50
2022-08-28T22:27:31.833Z,101263.03
2022-08-28T22:30:01.099Z,101279.34
2022-08-28T22:32:29.110Z,101272.84
2022-08-28T22:34:56.910Z,101276.84
2022-08-28T22:37:25.740Z,101268.22
2022-08-28T22:39:53.743Z,101280.44
2022-08-28T22:42:21.588Z,101275.78
2022-08-28T22:44:49.329Z,101274.28
2022-08-28T22:47:19.002Z,101269.25
2022-08-28T22:49:46.960Z,101268.75
2022-08-28T22:52:15.320Z,101266.59
2022-08-28T22:54:43.617Z,101268.81
2022-08-28T22:57:11.668Z,101265.78
2022-08-28T22:59:39.603Z,101264.94
2022-08-28T23:02:07.730Z,101265.81
2022-08-28T23:04:37.175Z,101252.13
2022-08-28T23:07:05.436Z,101259.03
2022-08-28T23:09:36.101Z,101263.88
2022-08-28T23:12:04.664Z,101263.03
2022-08-28T23:14:32.610Z,101265.81
2022-08-28T23:17:01.069Z,101261.19
2022-08-28T23:19:29.008Z,101259.19
2022-08-28T23:21:59.804Z,101262.72
2022-08-28T23:24:27.775Z,101262.38
2022-08-28T23:26:55.567Z,101262.53
2022-08-28T23:29:23.299Z,101260.88
2022-08-28T23:31:51.088Z,101261.78
2022-08-28T23:34:18.860Z,101259.25
2022-08-28T23:36:46.716Z,101260.44
2022-08-28T23:39:16.003Z,101258.44
2022-08-28T23:41:43.873Z,101256.31
2022-08-28T23:44:11.734Z,101257.69
2022-08-28T23:46:41.713Z,101257.00
2022-08-28T23:49:11.009Z,101263.72
2022-08-28T23:51:38.829Z,101264.72
2022-08-28T23:54:07.055Z,101228.34
2022-08-28T23:56:36.738Z,101264.91
2022-08-28T23:59:05.169Z,101259.09
